sensor_id;sensor_type;location;lat;lon;timestamp;pressure;altitude;pressure_sealevel;temperature;humidity
39141;BME280;24875;48.436;10.298;2022-10-04T00:02:04;97032.47;;;6.75;100.00
39141;BME280;24875;48.436;10.298;2022-10-04T00:04:44;97025.75;;;6.82;100.00
39141;BME280;24875;48.436;10.298;2022-10-04T00:07:16;97017.84;;;6.73;100.00
39141;BME280;24875;48.436;10.298;2022-10-04T00:09:49;97027.38;;;6.74;100.00
39141;BME280;24875;48.436;10.298;2022-10-04T00:12:19;97033.59;;;6.82;100.00
39141;BME280;24875;48.436;10.298;2022-10-04T00:14:48;97029.31;;;6.91;100.00
39141;BME280;24875;48.436;10.298;2022-10-04T00:17:21;97023.84;;;7.03;100.00
39141;BME280;24875;48.436;10.298;2022-10-04T00:19:49;97023.66;;;6.86;100.00
39141;BME280;24875;48.436;10.298;2022-10-04T00:22:18;97018.13;;;6.79;100.00
39141;BME280;24875;48.436;10.298;2022-10-04T00:25:15;97021.47;;;6.91;100.00
39141;BME280;24875;48.436;10.298;2022-10-04T00:31:05;97023.94;;;6.83;100.00
39141;BME280;24875;48.436;10.298;2022-10-04T00:33:33;97017.97;;;6.62;100.00
39141;BME280;24875;48.436;10.298;2022-10-04T00:36:30;97019.50;;;6.74;100.00
39141;BME280;24875;48.436;10.298;2022-10-04T00:39:03;97021.69;;;6.60;100.00
39141;BME280;24875;48.436;10.298;2022-10-04T00:41:47;97017.97;;;6.62;100.00
39141;BME280;24875;48.436;10.298;2022-10-04T00:44:23;97017.97;;;6.62;100.00
39141;BME280;24875;48.436;10.298;2022-10-04T00:46:54;97016.59;;;6.67;100.00
39141;BME280;24875;48.436;10.298;2022-10-04T00:49:26;97011.50;;;6.66;100.00
39141;BME280;24875;48.436;10.298;2022-10-04T00:51:59;97008.47;;;6.61;100.00
39141;BME280;24875;48.436;10.298;2022-10-04T00:54:31;97007.94;;;6.67;100.00
39141;BME280;24875;48.436;10.298;2022-10-04T00:57:04;97004.88;;;6.62;100.00
39141;BME280;24875;48.436;10.298;2022-10-04T00:59:34;96996.03;;;6.63;100.00
39141;BME280;24875;48.436;10.298;2022-10-04T01:02:05;96998.47;;;6.36;100.00
39141;BME280;24875;48.436;10.298;2022-10-04T01:04:40;96994.22;;;6.35;100.00
39141;BME280;24875;48.436;10.298;2022-10-04T01:07:08;96995.97;;;6.25;100.00
39141;BME280;24875;48.436;10.298;2022-10-04T01:09:45;96999.31;;;6.37;100.00
39141;BME280;24875;48.436;10.298;2022-10-04T01:12:19;97001.22;;;6.35;100.00
39141;BME280;24875;48.436;10.298;2022-10-04T01:14:54;96992.69;;;6.42;100.00
39141;BME280;24875;48.436;10.298;2022-10-04T01:17:26;96995.09;;;6.25;100.00
39141;BME280;24875;48.436;10.298;2022-10-04T01:19:53;96988.25;;;6.33;100.00
39141;BME280;24875;48.436;10.298;2022-10-04T01:22:33;96985.56;;;6.44;100.00
39141;BME280;24875;48.436;10.298;2022-10-04T01:25:00;96986.06;;;6.29;100.00
39141;BME280;24875;48.436;10.298;2022-10-04T01:27:32;96976.69;;;6.26;100.00
39141;BME280;24875;48.436;10.298;2022-10-04T01:30:01;96971.75;;;6.33;100.00
39141;BME280;24875;48.436;10.298;2022-10-04T01:32:29;96967.22;;;6.44;100.00
39141;BME280;24875;48.436;10.298;2022-10-04T01:34:57;96961.28;;;6.42;100.00
39141;BME280;24875;48.436;10.298;2022-10-04T01:37:23;96975.88;;;6.35;100.00
39141;BME280;24875;48.436;10.298;2022-10-04T01:39:51;96977.50;;;6.27;100.00
39141;BME280;24875;48.436;10.298;2022-10-04T01:42:22;96968.34;;;6.12;100.00
39141;BME280;24875;48.436;10.298;2022-10-04T01:44:55;96960.69;;;6.20;100.00
39141;BME280;24875;48.436;10.298;2022-10-04T01:47:30;96953.13;;;6.26;100.00
39141;BME280;24875;48.436;10.298;2022-10-04T01:50:02;96960.19;;;6.35;100.00
39141;BME280;24875;48.436;10.298;2022-10-04T01:52:34;96959.19;;;6.27;100.00
39141;BME280;24875;48.436;10.298;2022-10-04T01:55:05;96954.38;;;6.22;100.00
39141;BME280;24875;48.436;10.298;2022-10-04T01:57:34;96952.00;;;6.19;100.00
39141;BME280;24875;48.436;10.298;2022-10-04T02:00:04;96951.06;;;6.30;100.00
39141;BME280;24875;48.436;10.298;2022-10-04T02:02:35;96951.47;;;6.35;100.00
39141;BME280;24875;48.436;10.298;2022-10-04T02:05:08;96957.13;;;6.30;100.00
39141;BME280;24875;48.436;10.298;2022-10-04T02:07:37;96958.47;;;6.15;100.00
39141;BME280;24875;48.436;10.298;2022-10-04T02:10:09;96952.94;;;6.18;100.00
39141;BME280;24875;48.436;10.298;2022-10-04T02:12:42;96950.34;;;6.18;100.00
39141;BME280;24875;48.436;10.298;2022-10-04T02:15:10;96948.06;;;6.04;100.00
39141;BME280;24875;48.436;10.298;2022-10-04T02:17:39;96952.06;;;5.99;100.00
39141;BME280;24875;48.436;10.298;2022-10-04T02:20:12;96947.13;;;6.05;100.00
39141;BME280;24875;48.436;10.298;2022-10-04T02:22:39;96941.44;;;5.91;100.00
39141;BME280;24875;48.436;10.298;2022-10-04T02:25:09;96943.13;;;6.02;100.00
39141;BME280;24875;48.436;10.298;2022-10-04T02:27:37;96949.28;;;5.91;100.00
39141;BME280;24875;48.436;10.298;2022-10-04T02:30:06;96948.66;;;6.08;100.00
39141;BME280;24875;48.436;10.298;2022-10-04T02:32:34;96947.41;;;6.03;100.00
39141;BME280;24875;48.436;10.298;2022-10-04T02:35:20;96945.34;;;6.06;100.00
39141;BME280;24875;48.436;10.298;2022-10-04T02:37:49;96951.19;;;6.19;100.00
39141;BME280;24875;48.436;10.298;2022-10-04T02:40:22;96947.72;;;6.18;100.00
39141;BME280;24875;48.436;10.298;2022-10-04T02:42:57;96950.75;;;6.23;100.00
39141;BME280;24875;48.436;10.298;2022-10-04T02:45:30;96952.28;;;6.26;100.00
39141;BME280;24875;48.436;10.298;2022-10-04T02:48:01;96943.91;;;6.32;100.00
39141;BME280;24875;48.436;10.298;2022-10-04T02:50:34;96947.25;;;6.43;100.00
39141;BME280;24875;48.436;10.298;2022-10-04T02:53:11;96944.34;;;6.46;100.00
39141;BME280;24875;48.436;10.298;2022-10-04T02:55:41;96940.66;;;6.58;100.00
39141;BME280;24875;48.436;10.298;2022-10-04T02:58:09;96936.78;;;6.53;100.00
39141;BME280;24875;48.436;10.298;2022-10-04T03:00:46;96924.94;;;6.67;100.00
39141;BME280;24875;48.436;10.298;2022-10-04T03:03:16;96923.72;;;6.62;100.00
39141;BME280;24875;48.436;10.298;2022-10-04T03:05:52;96913.63;;;6.48;100.00
39141;BME280;24875;48.436;10.298;2022-10-04T03:08:22;96905.06;;;6.46;100.00
39141;BME280;24875;48.436;10.298;2022-10-04T03:10:50;96908.69;;;6.55;100.00
39141;BME280;24875;48.436;10.298;2022-10-04T03:13:18;96910.47;;;6.64;100.00
39141;BME280;24875;48.436;10.298;2022-10-04T03:15:46;96906.63;;;6.58;100.00
39141;BME280;24875;48.436;10.298;2022-10-04T03:18:15;96910.06;;;6.59;100.00
39141;BME280;24875;48.436;10.298;2022-10-04T03:20:43;96919.41;;;6.52;100.00
39141;BME280;24875;48.436;10.298;2022-10-04T03:23:12;96922.34;;;6.58;100.00
39141;BME280;24875;48.436;10.298;2022-10-04T03:25:46;96920.00;;;6.65;100.00
39141;BME280;24875;48.436;10.298;2022-10-04T03:28:16;96916.09;;;6.59;100.00
39141;BME280;24875;48.436;10.298;2022-10-04T03:30:43;96918.72;;;6.59;100.00
39141;BME280;24875;48.436;10.298;2022-10-04T03:33:15;96917.78;;;6.60;100.00
39141;BME280;24875;48.436;10.298;2022-10-04T03:35:44;96923.16;;;6.49;100.00
39141;BME280;24875;48.436;10.298;2022-10-04T03:38:13;96923.69;;;6.53;100.00
39141;BME280;24875;48.436;10.298;2022-10-04T03:40:42;96924.81;;;6.60;100.00
39141;BME280;24875;48.436;10.298;2022-10-04T03:43:15;96921.34;;;6.59;100.00
39141;BME280;24875;48.436;10.298;2022-10-04T03:45:42;96910.88;;;6.59;100.00
39141;BME280;24875;48.436;10.298;2022-10-04T03:48:13;96910.19;;;6.57;100.00
39141;BME280;24875;48.436;10.298;2022-10-04T03:50:45;96910.72;;;6.51;100.00
39141;BME280;24875;48.436;10.298;2022-10-04T03:53:26;96901.78;;;6.63;100.00
39141;BME280;24875;48.436;10.298;2022-10-04T03:55:53;96894.34;;;6.49;100.00
39141;BME280;24875;48.436;10.298;2022-10-04T03:58:21;96893.50;;;6.49;100.00
39141;BME280;24875;48.436;10.298;2022-10-04T04:01:02;96894.06;;;6.52;100.00
39141;BME280;24875;48.436;10.298;2022-10-04T04:03:35;96898.31;;;6.44;100.00
39141;BME280;24875;48.436;10.298;2022-10-04T04:06:13;96901.06;;;6.52;100.00
39141;BME280;24875;48.436;10.298;2022-10-04T04:08:42;96891.31;;;6.44;100.00
39141;BME280;24875;48.436;10.298;2022-10-04T04:11:16;96889.94;;;6.50;100.00
39141;BME280;24875;48.436;10.298;2022-10-04T04:13:48;96892.84;;;6.47;100.00
39141;BME280;24875;48.436;10.298;2022-10-04T04:16:18;96894.47;;;6.48;100.00
39141;BME280;24875;48.436;10.298;2022-10-04T04:18:47;96890.50;;;6.53;100.00
39141;BME280;24875;48.436;10.298;2022-10-04T04:21:16;96894.59;;;6.46;100.00
39141;BME280;24875;48.436;10.298;2022-10-04T04:23:45;96899.84;;;6.46;100.00
39141;BME280;24875;48.436;10.298;2022-10-04T04:26:18;96903.41;;;6.45;100.00
39141;BME280;24875;48.436;10.298;2022-10-04T04:28:53;96900.94;;;6.44;100.00
39141;BME280;24875;48.436;10.298;2022-10-04T04:31:24;96918.84;;;6.39;100.00
39141;BME280;24875;48.436;10.298;2022-10-04T04:33:55;96922.72;;;6.44;100.00
39141;BME280;24875;48.436;10.298;2022-10-04T04:36:26;96933.19;;;6.44;100.00
39141;BME280;24875;48.436;10.298;2022-10-04T04:38:53;96942.09;;;6.32;100.00
39141;BME280;24875;48.436;10.298;2022-10-04T04:41:37;96955.19;;;6.32;100.00
39141;BME280;24875;48.436;10.298;2022-10-04T04:44:15;96959.88;;;6.29;100.00
39141;BME280;24875;48.436;10.298;2022-10-04T04:46:42;96957.34;;;6.08;100.00
39141;BME280;24875;48.436;10.298;2022-10-04T04:49:09;96953.19;;;6.06;100.00
39141;BME280;24875;48.436;10.298;2022-10-04T04:51:38;96949.34;;;6.10;100.00
39141;BME280;24875;48.436;10.298;2022-10-04T04:54:06;96936.94;;;6.03;100.00
39141;BME280;24875;48.436;10.298;2022-10-04T04:56:33;96920.09;;;5.96;100.00
39141;BME280;24875;48.436;10.298;2022-10-04T04:59:02;96924.28;;;5.78;100.00
39141;BME280;24875;48.436;10.298;2022-10-04T05:01:34;96918.22;;;6.07;100.00
39141;BME280;24875;48.436;10.298;2022-10-04T05:04:03;96926.75;;;6.00;100.00
39141;BME280;24875;48.436;10.298;2022-10-04T05:06:31;96920.97;;;6.05;100.00
39141;BME280;24875;48.436;10.298;2022-10-04T05:08:58;96930.19;;;6.09;100.00
39141;BME280;24875;48.436;10.298;2022-10-04T05:11:27;96925.56;;;6.22;100.00
39141;BME280;24875;48.436;10.298;2022-10-04T05:13:57;96937.25;;;6.18;100.00
39141;BME280;24875;48.436;10.298;2022-10-04T05:16:29;96926.63;;;6.10;100.00
39141;BME280;24875;48.436;10.298;2022-10-04T05:18:59;96926.97;;;6.26;100.00
39141;BME280;24875;48.436;10.298;2022-10-04T05:21:29;96920.88;;;6.26;100.00
39141;BME280;24875;48.436;10.298;2022-10-04T05:24:07;96913.69;;;6.18;100.00
39141;BME280;24875;48.436;10.298;2022-10-04T05:26:34;96907.78;;;6.26;100.00
39141;BME280;24875;48.436;10.298;2022-10-04T05:29:07;96903.13;;;6.39;100.00
39141;BME280;24875;48.436;10.298;2022-10-04T05:31:40;96911.16;;;6.47;100.00
39141;BME280;24875;48.436;10.298;2022-10-04T05:34:19;96919.81;;;6.47;100.00
39141;BME280;24875;48.436;10.298;2022-10-04T05:36:55;96924.53;;;6.53;100.00
39141;BME280;24875;48.436;10.298;2022-10-04T05:39:26;96928.78;;;6.54;100.00
39141;BME280;24875;48.436;10.298;2022-10-04T05:42:04;96921.09;;;6.62;100.00
39141;BME280;24875;48.436;10.298;2022-10-04T05:44:45;96920.09;;;6.54;100.00
39141;BME280;24875;48.436;10.298;2022-10-04T05:47:14;96920.78;;;6.37;100.00
39141;BME280;24875;48.436;10.298;2022-10-04T05:49:49;96919.97;;;6.55;100.00
39141;BME280;24875;48.436;10.298;2022-10-04T05:52:25;96927.81;;;6.55;100.00
39141;BME280;24875;48.436;10.298;2022-10-04T05:55:14;96935.72;;;6.65;100.00
39141;BME280;24875;48.436;10.298;2022-10-04T05:57:48;96934.72;;;6.56;100.00
39141;BME280;24875;48.436;10.298;2022-10-04T06:00:19;96932.81;;;6.58;100.00
39141;BME280;24875;48.436;10.298;2022-10-04T06:03:23;96932.09;;;6.65;100.00
39141;BME280;24875;48.436;10.298;2022-10-04T06:05:55;96930.56;;;6.63;100.00
39141;BME280;24875;48.436;10.298;2022-10-04T06:08:42;96934.72;;;6.65;100.00
39141;BME280;24875;48.436;10.298;2022-10-04T06:11:26;96931.56;;;6.62;100.00
39141;BME280;24875;48.436;10.298;2022-10-04T06:14:33;96932.94;;;6.66;100.00
39141;BME280;24875;48.436;10.298;2022-10-04T06:17:15;96927.81;;;6.55;100.00
39141;BME280;24875;48.436;10.298;2022-10-04T06:20:10;96917.38;;;6.65;100.00
39141;BME280;24875;48.436;10.298;2022-10-04T06:22:45;96921.94;;;6.81;100.00
39141;BME280;24875;48.436;10.298;2022-10-04T06:25:16;96919.44;;;6.89;100.00
39141;BME280;24875;48.436;10.298;2022-10-04T06:27:49;96928.81;;;6.92;100.00
39141;BME280;24875;48.436;10.298;2022-10-04T06:30:19;96929.38;;;6.95;100.00
39141;BME280;24875;48.436;10.298;2022-10-04T06:33:19;96930.47;;;7.12;100.00
39141;BME280;24875;48.436;10.298;2022-10-04T06:36:15;96940.53;;;7.16;100.00
39141;BME280;24875;48.436;10.298;2022-10-04T06:39:32;96927.97;;;7.20;100.00
39141;BME280;24875;48.436;10.298;2022-10-04T06:42:32;96941.06;;;7.20;100.00
39141;BME280;24875;48.436;10.298;2022-10-04T06:45:21;96934.59;;;7.05;100.00
39141;BME280;24875;48.436;10.298;2022-10-04T06:48:11;96944.94;;;7.16;100.00
39141;BME280;24875;48.436;10.298;2022-10-04T06:50:48;96944.25;;;7.14;100.00
39141;BME280;24875;48.436;10.298;2022-10-04T06:53:26;96946.19;;;7.21;100.00
39141;BME280;24875;48.436;10.298;2022-10-04T06:56:33;96946.31;;;7.20;100.00
39141;BME280;24875;48.436;10.298;2022-10-04T06:59:25;96949.91;;;7.19;100.00
39141;BME280;24875;48.436;10.298;2022-10-04T07:02:01;96953.22;;;7.21;100.00
39141;BME280;24875;48.436;10.298;2022-10-04T07:04:34;96956.94;;;7.27;100.00
39141;BME280;24875;48.436;10.298;2022-10-04T07:07:10;96958.72;;;7.36;100.00
39141;BME280;24875;48.436;10.298;2022-10-04T07:10:05;96950.44;;;7.31;100.00
39141;BME280;24875;48.436;10.298;2022-10-04T07:12:39;96959.69;;;7.45;100.00
39141;BME280;24875;48.436;10.298;2022-10-04T07:15:15;96953.03;;;7.50;100.00
39141;BME280;24875;48.436;10.298;2022-10-04T07:17:46;96955.25;;;7.45;100.00
39141;BME280;24875;48.436;10.298;2022-10-04T07:20:19;96959.25;;;7.59;100.00
39141;BME280;24875;48.436;10.298;2022-10-04T07:22:52;96960.16;;;7.67;100.00
39141;BME280;24875;48.436;10.298;2022-10-04T07:25:23;96958.75;;;7.82;100.00
39141;BME280;24875;48.436;10.298;2022-10-04T07:27:57;96966.50;;;7.74;100.00
39141;BME280;24875;48.436;10.298;2022-10-04T07:30:47;96968.69;;;7.88;100.00
39141;BME280;24875;48.436;10.298;2022-10-04T07:33:20;96958.72;;;7.91;100.00
39141;BME280;24875;48.436;10.298;2022-10-04T07:35:49;96960.06;;;7.95;100.00
39141;BME280;24875;48.436;10.298;2022-10-04T07:38:22;96962.28;;;8.00;100.00
39141;BME280;24875;48.436;10.298;2022-10-04T07:41:08;96966.47;;;7.93;100.00
39141;BME280;24875;48.436;10.298;2022-10-04T07:43:46;96960.34;;;8.02;100.00
39141;BME280;24875;48.436;10.298;2022-10-04T07:46:20;96972.28;;;7.87;100.00
39141;BME280;24875;48.436;10.298;2022-10-04T07:48:49;96970.06;;;7.92;100.00
39141;BME280;24875;48.436;10.298;2022-10-04T07:51:23;96973.28;;;8.13;100.00
39141;BME280;24875;48.436;10.298;2022-10-04T07:53:54;96987.78;;;8.17;100.00
39141;BME280;24875;48.436;10.298;2022-10-04T07:56:26;96987.47;;;8.29;100.00
39141;BME280;24875;48.436;10.298;2022-10-04T07:59:06;96990.66;;;8.33;100.00
39141;BME280;24875;48.436;10.298;2022-10-04T08:01:40;96985.56;;;8.48;100.00
39141;BME280;24875;48.436;10.298;2022-10-04T08:04:19;96992.38;;;8.68;100.00
39141;BME280;24875;48.436;10.298;2022-10-04T08:06:56;96992.03;;;8.54;100.00
39141;BME280;24875;48.436;10.298;2022-10-04T08:09:33;96990.81;;;8.58;100.00
39141;BME280;24875;48.436;10.298;2022-10-04T08:12:07;96983.22;;;8.72;100.00
39141;BME280;24875;48.436;10.298;2022-10-04T08:14:53;96989.06;;;8.66;100.00
39141;BME280;24875;48.436;10.298;2022-10-04T08:17:30;96990.44;;;8.70;100.00
39141;BME280;24875;48.436;10.298;2022-10-04T08:20:10;96989.72;;;8.95;100.00
39141;BME280;24875;48.436;10.298;2022-10-04T08:22:53;96985.69;;;9.18;100.00
39141;BME280;24875;48.436;10.298;2022-10-04T08:25:26;96990.19;;;9.08;100.00
39141;BME280;24875;48.436;10.298;2022-10-04T08:28:02;96974.25;;;9.27;100.00
39141;BME280;24875;48.436;10.298;2022-10-04T08:31:00;96978.41;;;9.29;100.00
39141;BME280;24875;48.436;10.298;2022-10-04T08:33:44;96976.47;;;9.57;100.00
39141;BME280;24875;48.436;10.298;2022-10-04T08:36:25;96971.22;;;9.57;100.00
39141;BME280;24875;48.436;10.298;2022-10-04T08:38:56;96965.34;;;9.63;100.00
39141;BME280;24875;48.436;10.298;2022-10-04T08:41:53;96960.13;;;9.70;100.00
39141;BME280;24875;48.436;10.298;2022-10-04T08:44:49;96965.50;;;9.86;100.00
39141;BME280;24875;48.436;10.298;2022-10-04T08:47:53;96958.06;;;9.99;100.00
39141;BME280;24875;48.436;10.298;2022-10-04T08:50:45;96969.56;;;9.98;100.00
39141;BME280;24875;48.436;10.298;2022-10-04T08:56:20;96962.84;;;10.37;100.00
39141;BME280;24875;48.436;10.298;2022-10-04T08:59:02;96960.38;;;10.35;100.00
39141;BME280;24875;48.436;10.298;2022-10-04T09:01:55;96958.47;;;10.53;100.00
39141;BME280;24875;48.436;10.298;2022-10-04T09:04:53;96954.75;;;10.80;100.00
39141;BME280;24875;48.436;10.298;2022-10-04T09:07:44;96960.72;;;10.90;100.00
39141;BME280;24875;48.436;10.298;2022-10-04T09:10:35;96951.69;;;11.00;100.00
39141;BME280;24875;48.436;10.298;2022-10-04T09:13:16;96957.44;;;11.03;100.00
39141;BME280;24875;48.436;10.298;2022-10-04T09:15:53;96949.47;;;10.72;100.00
39141;BME280;24875;48.436;10.298;2022-10-04T09:19:00;96950.34;;;10.96;100.00
39141;BME280;24875;48.436;10.298;2022-10-04T09:21:39;96946.88;;;10.95;100.00
39141;BME280;24875;48.436;10.298;2022-10-04T09:24:32;96940.56;;;10.73;100.00
39141;BME280;24875;48.436;10.298;2022-10-04T09:27:18;96948.53;;;10.89;100.00
39141;BME280;24875;48.436;10.298;2022-10-04T09:30:04;96941.59;;;11.03;100.00
39141;BME280;24875;48.436;10.298;2022-10-04T09:33:03;96938.31;;;11.09;100.00
39141;BME280;24875;48.436;10.298;2022-10-04T09:35:57;96942.63;;;11.18;100.00
39141;BME280;24875;48.436;10.298;2022-10-04T09:38:48;96941.59;;;11.03;100.00
39141;BME280;24875;48.436;10.298;2022-10-04T09:41:38;96950.50;;;10.94;100.00
39141;BME280;24875;48.436;10.298;2022-10-04T09:44:29;96961.09;;;11.02;100.00
39141;BME280;24875;48.436;10.298;2022-10-04T09:47:29;96963.22;;;11.07;100.00
39141;BME280;24875;48.436;10.298;2022-10-04T09:50:30;96974.91;;;11.12;100.00
39141;BME280;24875;48.436;10.298;2022-10-04T09:53:14;96963.53;;;10.96;100.00
39141;BME280;24875;48.436;10.298;2022-10-04T09:56:07;96964.72;;;11.09;100.00
39141;BME280;24875;48.436;10.298;2022-10-04T09:58:56;96958.81;;;11.47;100.00
39141;BME280;24875;48.436;10.298;2022-10-04T10:01:32;96950.41;;;11.75;100.00
39141;BME280;24875;48.436;10.298;2022-10-04T10:06:57;96943.94;;;11.94;100.00
39141;BME280;24875;48.436;10.298;2022-10-04T10:09:31;96956.34;;;12.39;100.00
39141;BME280;24875;48.436;10.298;2022-10-04T10:12:37;96968.75;;;12.39;100.00
39141;BME280;24875;48.436;10.298;2022-10-04T10:15:27;96975.53;;;12.41;100.00
39141;BME280;24875;48.436;10.298;2022-10-04T10:18:03;96972.97;;;12.56;100.00
39141;BME280;24875;48.436;10.298;2022-10-04T10:21:03;96965.22;;;12.54;100.00
39141;BME280;24875;48.436;10.298;2022-10-04T10:23:52;96966.94;;;12.77;100.00
39141;BME280;24875;48.436;10.298;2022-10-04T10:26:45;96965.75;;;12.80;100.00
39141;BME280;24875;48.436;10.298;2022-10-04T10:29:39;96969.31;;;13.03;100.00
39141;BME280;24875;48.436;10.298;2022-10-04T10:32:45;96959.75;;;13.24;100.00
39141;BME280;24875;48.436;10.298;2022-10-04T10:35:27;96958.88;;;13.32;100.00
39141;BME280;24875;48.436;10.298;2022-10-04T10:38:15;96957.53;;;13.36;100.00
39141;BME280;24875;48.436;10.298;2022-10-04T10:41:01;96961.41;;;13.47;100.00
39141;BME280;24875;48.436;10.298;2022-10-04T10:43:42;96953.97;;;13.65;100.00
39141;BME280;24875;48.436;10.298;2022-10-04T10:46:42;96947.50;;;13.68;99.51
39141;BME280;24875;48.436;10.298;2022-10-04T10:49:29;96939.19;;;13.71;100.00
39141;BME280;24875;48.436;10.298;2022-10-04T10:55:47;96935.13;;;13.97;100.00
39141;BME280;24875;48.436;10.298;2022-10-04T11:01:37;96933.25;;;14.20;100.00
39141;BME280;24875;48.436;10.298;2022-10-04T11:04:23;96940.84;;;14.08;100.00
39141;BME280;24875;48.436;10.298;2022-10-04T11:07:21;96943.22;;;14.32;100.00
39141;BME280;24875;48.436;10.298;2022-10-04T11:10:03;96935.81;;;14.28;100.00
39141;BME280;24875;48.436;10.298;2022-10-04T11:12:54;96934.88;;;14.50;100.00
39141;BME280;24875;48.436;10.298;2022-10-04T11:15:39;96942.94;;;14.42;100.00
39141;BME280;24875;48.436;10.298;2022-10-04T11:21:49;96941.84;;;14.36;100.00
39141;BME280;24875;48.436;10.298;2022-10-04T11:24:51;96934.47;;;14.46;98.88
39141;BME280;24875;48.436;10.298;2022-10-04T11:27:44;96928.97;;;14.33;100.00
39141;BME280;24875;48.436;10.298;2022-10-04T11:30:18;96923.59;;;14.27;100.00
39141;BME280;24875;48.436;10.298;2022-10-04T11:33:18;96918.53;;;14.32;100.00
39141;BME280;24875;48.436;10.298;2022-10-04T11:39:00;96903.56;;;14.39;100.00
39141;BME280;24875;48.436;10.298;2022-10-04T11:41:40;96909.97;;;14.79;99.20
39141;BME280;24875;48.436;10.298;2022-10-04T11:44:31;96903.91;;;14.85;98.46
39141;BME280;24875;48.436;10.298;2022-10-04T11:47:04;96901.06;;;14.52;100.00
39141;BME280;24875;48.436;10.298;2022-10-04T11:49:55;96894.06;;;14.79;100.00
39141;BME280;24875;48.436;10.298;2022-10-04T11:55:48;96886.50;;;14.62;100.00
39141;BME280;24875;48.436;10.298;2022-10-04T11:58:28;96881.69;;;14.86;100.00
39141;BME280;24875;48.436;10.298;2022-10-04T12:01:21;96885.84;;;14.95;97.17
39141;BME280;24875;48.436;10.298;2022-10-04T12:04:30;96875.69;;;15.20;98.91
39141;BME280;24875;48.436;10.298;2022-10-04T12:07:24;96878.75;;;15.37;96.41
39141;BME280;24875;48.436;10.298;2022-10-04T12:09:58;96880.47;;;15.45;94.51
39141;BME280;24875;48.436;10.298;2022-10-04T12:12:44;96876.53;;;15.41;95.91
39141;BME280;24875;48.436;10.298;2022-10-04T12:15:29;96866.06;;;15.33;96.14
39141;BME280;24875;48.436;10.298;2022-10-04T12:18:14;96857.28;;;15.60;96.33
39141;BME280;24875;48.436;10.298;2022-10-04T12:21:03;96863.53;;;16.00;90.89
39141;BME280;24875;48.436;10.298;2022-10-04T12:26:58;96859.16;;;15.93;90.99
39141;BME280;24875;48.436;10.298;2022-10-04T12:29:57;96857.56;;;15.98;91.61
39141;BME280;24875;48.436;10.298;2022-10-04T12:32:32;96859.56;;;15.90;89.41
39141;BME280;24875;48.436;10.298;2022-10-04T12:35:17;96862.06;;;15.98;90.15
39141;BME280;24875;48.436;10.298;2022-10-04T12:38:06;96861.38;;;15.89;88.00
39141;BME280;24875;48.436;10.298;2022-10-04T12:40:40;96857.38;;;16.00;87.31
39141;BME280;24875;48.436;10.298;2022-10-04T12:43:15;96857.47;;;15.85;88.22
39141;BME280;24875;48.436;10.298;2022-10-04T12:45:57;96855.34;;;16.02;87.35
39141;BME280;24875;48.436;10.298;2022-10-04T12:48:39;96854.94;;;16.05;88.47
39141;BME280;24875;48.436;10.298;2022-10-04T12:51:26;96856.78;;;16.04;89.43
39141;BME280;24875;48.436;10.298;2022-10-04T12:54:06;96848.03;;;16.10;89.53
39141;BME280;24875;48.436;10.298;2022-10-04T12:56:49;96840.63;;;16.33;85.62
39141;BME280;24875;48.436;10.298;2022-10-04T12:59:37;96837.66;;;16.22;86.44
39141;BME280;24875;48.436;10.298;2022-10-04T13:02:23;96825.34;;;16.14;86.38
39141;BME280;24875;48.436;10.298;2022-10-04T13:04:54;96826.88;;;16.30;83.16
39141;BME280;24875;48.436;10.298;2022-10-04T13:07:44;96820.66;;;16.16;84.01
39141;BME280;24875;48.436;10.298;2022-10-04T13:10:28;96815.25;;;16.03;87.37
39141;BME280;24875;48.436;10.298;2022-10-04T13:13:10;96816.16;;;16.17;83.50
39141;BME280;24875;48.436;10.298;2022-10-04T13:15:43;96822.94;;;16.19;83.54
39141;BME280;24875;48.436;10.298;2022-10-04T13:18:23;96826.84;;;16.23;84.12
39141;BME280;24875;48.436;10.298;2022-10-04T13:20:58;96818.00;;;16.23;84.02
39141;BME280;24875;48.436;10.298;2022-10-04T13:23:49;96829.13;;;16.26;83.66
39141;BME280;24875;48.436;10.298;2022-10-04T13:26:36;96829.50;;;16.23;82.83
39141;BME280;24875;48.436;10.298;2022-10-04T13:29:14;96826.38;;;16.53;79.49
39141;BME280;24875;48.436;10.298;2022-10-04T13:31:48;96827.19;;;16.48;81.13
39141;BME280;24875;48.436;10.298;2022-10-04T13:34:27;96828.63;;;16.16;80.77
39141;BME280;24875;48.436;10.298;2022-10-04T13:37:08;96824.25;;;16.02;83.21
39141;BME280;24875;48.436;10.298;2022-10-04T13:39:59;96826.91;;;16.02;84.22
39141;BME280;24875;48.436;10.298;2022-10-04T13:42:40;96824.56;;;15.86;85.15
39141;BME280;24875;48.436;10.298;2022-10-04T13:45:26;96827.72;;;15.96;83.19
39141;BME280;24875;48.436;10.298;2022-10-04T13:48:10;96825.25;;;15.95;83.50
39141;BME280;24875;48.436;10.298;2022-10-04T13:53:42;96825.22;;;15.88;83.46
39141;BME280;24875;48.436;10.298;2022-10-04T13:56:54;96833.13;;;16.16;79.82
39141;BME280;24875;48.436;10.298;2022-10-04T13:59:29;96834.38;;;16.20;81.10
39141;BME280;24875;48.436;10.298;2022-10-04T14:02:21;96839.34;;;16.29;79.89
39141;BME280;24875;48.436;10.298;2022-10-04T14:05:30;96842.44;;;16.33;79.13
39141;BME280;24875;48.436;10.298;2022-10-04T14:11:35;96856.47;;;16.20;77.32
39141;BME280;24875;48.436;10.298;2022-10-04T14:17:40;96860.41;;;16.24;81.50
39141;BME280;24875;48.436;10.298;2022-10-04T14:21:00;96860.16;;;16.19;78.77
39141;BME280;24875;48.436;10.298;2022-10-04T14:27:25;96859.03;;;16.07;80.78
39141;BME280;24875;48.436;10.298;2022-10-04T14:30:05;96860.94;;;16.13;81.04
39141;BME280;24875;48.436;10.298;2022-10-04T14:33:08;96850.84;;;16.30;81.08